• Join FlightAware (Why Join?)
  • Login
  • US Flag 
08:40AM EST


 

Airport Tracker/Info


-or-


 

Live Flight TrackerFlight Track Log ✈ WIG7117 ✈ 03-Jun-2013 ✈ KALB - KSYR

Flight Track Log - Related Links

Times and Time Zones

All times are in EDT time to prevent confusion due to time zone crossing. See the WIG7117 flight status page for this flight to view local times or setup timezone preferences in your user account.

Time Position Orientation Groundspeed Altitude Reporting Facility
EDT Latitude Longitude Course Direction KTS MPH feet Rate Location/Type
11:12PM 42.7422 -73.8056 232° Southwest 80 92 1,000  Level Boston Center
11:12PM 42.7358 -73.8167 232° Southwest 78 90 1,500 1,500 Climbing Boston Center
11:13PM 42.7419 -73.8394 290° West 58 67 3,200 1,380 Climbing Boston Center
11:14PM 42.7439 -73.8594 278° West 60 69 4,300 960 Climbing Boston Center
11:15PM 42.7497 -73.8906 284° West 108 124 5,200 960 Climbing Boston Center
11:16PM 42.7553 -73.9303 281° West 112 129 6,300 900 Climbing Boston Center
11:17PM 42.7631 -73.9700 285° West 107 123 7,100 780 Climbing Boston Center
11:18PM 42.7708 -74.0128 284° West 109 125 7,900 420 Climbing Boston Center
11:19PM 42.7806 -74.0611 285° West 128 147 8,000  Climbing Boston Center
11:20PM 42.7883 -74.1092 282° West 135 155 8,000  Level Boston Center
11:21PM 42.7939 -74.1519 280° West 129 148 8,000  Level Boston Center
11:22PM 42.8036 -74.2003 285° West 126 145 8,000  Level Boston Center
11:23PM 42.8111 -74.2458 283° West 127 146 8,000  Level Boston Center
11:23PM 42.8150 -74.2656 285° West 124 143 8,000  Level Boston Center
11:24PM 42.8208 -74.2914 287° West 126 145 8,000  Level Boston Center
11:25PM 42.8264 -74.3397 279° West 130 150 8,000 -60 Level Boston Center
11:26PM 42.8339 -74.3853 283° West 128 147 7,900  Descending Boston Center
11:27PM 42.8414 -74.4308 283° West 126 145 8,000  Climbing Boston Center
11:28PM 42.8489 -74.4819 281° West 129 148 8,000  Level Boston Center
11:29PM 42.8586 -74.5275 286° West 129 148 8,000  Level Boston Center
11:30PM 42.8681 -74.5733 286° West 128 147 8,000  Level Boston Center
11:31PM 42.8756 -74.6244 281° West 127 146 8,000  Level Boston Center
11:32PM 42.8828 -74.6731 281° West 129 148 8,000  Level Boston Center
11:33PM 42.8903 -74.7186 283° West 130 150 8,000  Level Boston Center
11:34PM 42.8978 -74.7669 282° West 129 148 8,000  Level Boston Center
11:35PM 42.9069 -74.8156 284° West 134 154 8,000 -60 Level Boston Center
11:36PM 42.9144 -74.8669 281° West 132 152 7,900  Descending Boston Center
11:37PM 42.9236 -74.9183 284° West 132 152 8,000  Climbing Boston Center
11:38PM 42.9311 -74.9639 283° West 128 147 8,000  Level Boston Center
11:39PM 42.9403 -75.0097 285° West 130 150 8,000  Level Boston Center
11:40PM 42.9456 -75.0611 278° West 131 151 8,000  Level Boston Center
11:41PM 42.9547 -75.1097 284° West 129 148 8,000  Level Boston Center
11:42PM 42.9619 -75.1553 282° West 128 147 8,000 -120 Level Boston Center
11:43PM 42.9692 -75.2067 281° West 133 153 7,800 -360 Descending Boston Center
11:44PM 42.9783 -75.2556 284° West 138 159 7,300 -600 Descending Boston Center
11:45PM 42.9872 -75.3128 282° West 143 165 6,700 -660 Descending Boston Center
11:46PM 42.9964 -75.3669 283° West 145 167 6,000 -600 Descending Boston Center
11:47PM 43.0056 -75.4186 284° West 144 166 5,500 -660 Descending Boston Center
11:48PM 43.0125 -75.4728 280° West 142 163 4,700 -600 Descending Boston Center
11:49PM 43.0172 -75.5214 278° West 134 154 4,300 -360 Descending Boston Center
11:50PM 43.0264 -75.5703 284° West 130 150 4,000 -180 Descending Boston Center
11:51PM 43.0356 -75.6161 285° West 124 143 4,000  Level Boston Center
11:52PM 43.0425 -75.6647 281° West 122 140 4,000  Level Boston Center
11:53PM 43.0497 -75.7078 283° West 119 137 4,000 -180 Level Boston Center
11:54PM 43.0567 -75.7536 282° West 124 143 3,700 -480 Descending Boston Center
11:55PM 43.0636 -75.8053 280° West 136 157 3,100 -420 Descending Boston Center
11:56PM 43.0725 -75.8539 284° West 133 153 2,900 -60 Descending Boston Center
11:57PM 43.0775 -75.8969 279° West 120 138 3,000 -120 Climbing Boston Center
11:58PM 43.0886 -75.9431 288° West 127 146 2,700 -540 Descending Boston Center
11:59PM 43.1039 -75.9894 294° West 134 154 2,000 -780 Descending Boston Center
12:00AM 43.1125 -76.0469 282° West 148 170 1,200 -840 Descending Boston Center
12:02AM 43.1020 -76.0916 252° West  Level FlightAware Approximate
12:09AM 43.1000 -76.1000 270° West  Level FlightAware Approximate
12:10AM 43.1112 -76.1063 270° West  Level Estimated
12:11AM 43.1112 -76.1063 270° West  Level Estimated
12:12AM 43.1112 -76.1063 270° West  Level Estimated
12:13AM 43.1112 -76.1063 270° West  Level Estimated
12:14AM 43.1112 -76.1063 270° West  Level Estimated
12:15AM 43.1112 -76.1063 270° West  Level Estimated
12:16AM 43.1112 -76.1063 270° West  Level Estimated